ELP weather

El Paso International Airport
El Paso, Texas, United States

Public forecast

Using degrees Fahrenheit for public forecast. Weather courtesy of forecast.io.

METAR (pilot weather report)

Retrieved 2019/03/19 06:51 UTC (36 minutes ago):

KELP 190651Z 13005KT 10SM CLR 09/M02 A3016 RMK AO2 SLP180 T00891017 401720078

TAF (pilot weather forecast)

Retrieved 2019/03/19 06:30 UTC (57 minutes ago):

TAF KELP 190528Z 1906/2006 12005KT P6SM SKC FM192000 22006KT P6SM SKC